sensor_id;sensor_type;location;lat;lon;timestamp;pressure;altitude;pressure_sealevel;temperature;humidity
76052;BME280;64751;48.708;9.710;2024-01-27T00:01:32;99293.63;;;1.32;100.00
76052;BME280;64751;48.708;9.710;2024-01-27T00:04:04;99291.06;;;1.24;100.00
76052;BME280;64751;48.708;9.710;2024-01-27T00:06:37;99293.50;;;1.25;100.00
76052;BME280;64751;48.708;9.710;2024-01-27T00:09:05;99281.97;;;1.20;100.00
76052;BME280;64751;48.708;9.710;2024-01-27T00:11:37;99292.56;;;1.18;100.00
76052;BME280;64751;48.708;9.710;2024-01-27T00:14:06;99300.53;;;1.17;100.00
76052;BME280;64751;48.708;9.710;2024-01-27T00:16:33;99289.66;;;1.13;100.00
76052;BME280;64751;48.708;9.710;2024-01-27T00:19:05;99290.94;;;1.17;100.00
76052;BME280;64751;48.708;9.710;2024-01-27T00:21:33;99299.03;;;1.22;100.00
76052;BME280;64751;48.708;9.710;2024-01-27T00:24:05;99302.78;;;1.20;100.00
76052;BME280;64751;48.708;9.710;2024-01-27T00:26:33;99304.56;;;1.19;100.00
76052;BME280;64751;48.708;9.710;2024-01-27T00:29:06;99307.03;;;1.21;100.00
76052;BME280;64751;48.708;9.710;2024-01-27T00:31:34;99312.38;;;1.19;100.00
76052;BME280;64751;48.708;9.710;2024-01-27T00:34:01;99307.06;;;1.13;99.33
76052;BME280;64751;48.708;9.710;2024-01-27T00:36:34;99298.16;;;1.07;100.00
76052;BME280;64751;48.708;9.710;2024-01-27T00:39:02;99303.38;;;1.07;100.00
76052;BME280;64751;48.708;9.710;2024-01-27T00:41:35;99306.31;;;1.04;100.00
76052;BME280;64751;48.708;9.710;2024-01-27T00:44:03;99311.69;;;1.03;100.00
76052;BME280;64751;48.708;9.710;2024-01-27T00:46:37;99315.47;;;0.92;98.03
76052;BME280;64751;48.708;9.710;2024-01-27T00:49:09;99313.44;;;0.80;98.63
76052;BME280;64751;48.708;9.710;2024-01-27T00:51:42;99317.81;;;0.79;99.04
76052;BME280;64751;48.708;9.710;2024-01-27T00:54:09;99318.94;;;0.85;99.87
76052;BME280;64751;48.708;9.710;2024-01-27T00:56:41;99321.25;;;0.80;98.85
76052;BME280;64751;48.708;9.710;2024-01-27T00:59:09;99323.38;;;0.76;99.86
76052;BME280;64751;48.708;9.710;2024-01-27T01:01:38;99323.72;;;0.73;99.05
76052;BME280;64751;48.708;9.710;2024-01-27T01:04:06;99320.94;;;0.74;99.00
76052;BME280;64751;48.708;9.710;2024-01-27T01:06:39;99312.31;;;0.74;99.04
76052;BME280;64751;48.708;9.710;2024-01-27T01:09:06;99320.34;;;0.64;97.93
76052;BME280;64751;48.708;9.710;2024-01-27T01:11:34;99317.38;;;0.67;98.40
76052;BME280;64751;48.708;9.710;2024-01-27T01:14:02;99319.53;;;0.64;98.47
76052;BME280;64751;48.708;9.710;2024-01-27T01:16:29;99317.94;;;0.55;98.04
76052;BME280;64751;48.708;9.710;2024-01-27T01:19:03;99330.09;;;0.62;99.50
76052;BME280;64751;48.708;9.710;2024-01-27T01:21:35;99325.22;;;0.59;99.48
76052;BME280;64751;48.708;9.710;2024-01-27T01:24:03;99330.75;;;0.56;99.03
76052;BME280;64751;48.708;9.710;2024-01-27T01:26:30;99335.81;;;0.50;97.64
76052;BME280;64751;48.708;9.710;2024-01-27T01:28:58;99331.59;;;0.49;98.97
76052;BME280;64751;48.708;9.710;2024-01-27T01:31:30;99332.06;;;0.52;99.80
76052;BME280;64751;48.708;9.710;2024-01-27T01:34:04;99342.78;;;0.57;100.00
76052;BME280;64751;48.708;9.710;2024-01-27T01:36:36;99343.88;;;0.63;100.00
76052;BME280;64751;48.708;9.710;2024-01-27T01:39:03;99345.50;;;0.64;99.88
76052;BME280;64751;48.708;9.710;2024-01-27T01:41:36;99341.94;;;0.65;98.52
76052;BME280;64751;48.708;9.710;2024-01-27T01:44:08;99337.91;;;0.62;98.53
76052;BME280;64751;48.708;9.710;2024-01-27T01:46:36;99345.84;;;0.61;98.44
76052;BME280;64751;48.708;9.710;2024-01-27T01:49:10;99343.09;;;0.54;97.93
76052;BME280;64751;48.708;9.710;2024-01-27T01:51:42;99340.38;;;0.48;98.10
76052;BME280;64751;48.708;9.710;2024-01-27T01:54:09;99341.50;;;0.45;98.58
76052;BME280;64751;48.708;9.710;2024-01-27T01:56:43;99329.97;;;0.48;99.44
76052;BME280;64751;48.708;9.710;2024-01-27T01:59:16;99336.63;;;0.50;97.73
76052;BME280;64751;48.708;9.710;2024-01-27T02:01:43;99330.16;;;0.38;95.91
76052;BME280;64751;48.708;9.710;2024-01-27T02:04:13;99338.78;;;0.39;97.65
76052;BME280;64751;48.708;9.710;2024-01-27T02:06:40;99346.09;;;0.35;97.50
76052;BME280;64751;48.708;9.710;2024-01-27T02:09:13;99354.03;;;0.34;97.22
76052;BME280;64751;48.708;9.710;2024-01-27T02:11:40;99353.09;;;0.27;96.12
76052;BME280;64751;48.708;9.710;2024-01-27T02:14:08;99375.50;;;0.28;97.53
76052;BME280;64751;48.708;9.710;2024-01-27T02:16:41;99370.31;;;0.28;97.76
76052;BME280;64751;48.708;9.710;2024-01-27T02:19:08;99376.78;;;0.32;97.95
76052;BME280;64751;48.708;9.710;2024-01-27T02:21:42;99386.38;;;0.31;97.30
76052;BME280;64751;48.708;9.710;2024-01-27T02:24:11;99390.28;;;0.35;98.73
76052;BME280;64751;48.708;9.710;2024-01-27T02:26:43;99398.06;;;0.35;97.73
76052;BME280;64751;48.708;9.710;2024-01-27T02:29:11;99404.38;;;0.25;96.86
76052;BME280;64751;48.708;9.710;2024-01-27T02:31:43;99403.28;;;0.19;96.91
76052;BME280;64751;48.708;9.710;2024-01-27T02:34:11;99401.34;;;0.13;96.05
76052;BME280;64751;48.708;9.710;2024-01-27T02:36:38;99397.28;;;0.11;97.37
76052;BME280;64751;48.708;9.710;2024-01-27T02:39:05;99412.22;;;0.09;97.40
76052;BME280;64751;48.708;9.710;2024-01-27T02:41:39;99411.59;;;0.07;97.10
76052;BME280;64751;48.708;9.710;2024-01-27T02:44:12;99411.09;;;0.11;98.13
76052;BME280;64751;48.708;9.710;2024-01-27T02:46:44;99419.34;;;0.15;98.99
76052;BME280;64751;48.708;9.710;2024-01-27T02:49:11;99423.59;;;0.16;98.42
76052;BME280;64751;48.708;9.710;2024-01-27T02:51:44;99435.91;;;0.22;98.08
76052;BME280;64751;48.708;9.710;2024-01-27T02:54:11;99422.41;;;0.18;97.40
76052;BME280;64751;48.708;9.710;2024-01-27T02:56:40;99427.31;;;0.13;97.94
76052;BME280;64751;48.708;9.710;2024-01-27T02:59:07;99429.09;;;0.13;97.74
76052;BME280;64751;48.708;9.710;2024-01-27T03:01:35;99425.38;;;0.15;98.29
76052;BME280;64751;48.708;9.710;2024-01-27T03:04:03;99430.06;;;0.20;99.04
76052;BME280;64751;48.708;9.710;2024-01-27T03:06:30;99421.63;;;0.18;97.66
76052;BME280;64751;48.708;9.710;2024-01-27T03:09:03;99426.66;;;0.19;98.41
76052;BME280;64751;48.708;9.710;2024-01-27T03:11:30;99435.56;;;0.25;99.46
76052;BME280;64751;48.708;9.710;2024-01-27T03:13:59;99431.19;;;0.25;98.69
76052;BME280;64751;48.708;9.710;2024-01-27T03:16:26;99434.44;;;0.19;97.06
76052;BME280;64751;48.708;9.710;2024-01-27T03:18:59;99439.81;;;0.18;97.19
76052;BME280;64751;48.708;9.710;2024-01-27T03:21:31;99434.13;;;0.14;98.09
76052;BME280;64751;48.708;9.710;2024-01-27T03:24:04;99438.97;;;0.09;97.97
76052;BME280;64751;48.708;9.710;2024-01-27T03:26:36;99437.06;;;0.11;98.28
76052;BME280;64751;48.708;9.710;2024-01-27T03:29:10;99430.06;;;0.12;99.21
76052;BME280;64751;48.708;9.710;2024-01-27T03:31:37;99437.53;;;0.15;98.96
76052;BME280;64751;48.708;9.710;2024-01-27T03:34:05;99438.50;;;0.14;98.62
76052;BME280;64751;48.708;9.710;2024-01-27T03:36:38;99439.97;;;0.16;99.06
76052;BME280;64751;48.708;9.710;2024-01-27T03:39:10;99440.78;;;0.17;98.69
76052;BME280;64751;48.708;9.710;2024-01-27T03:41:42;99436.22;;;0.19;99.40
76052;BME280;64751;48.708;9.710;2024-01-27T03:44:11;99439.81;;;0.18;98.65
76052;BME280;64751;48.708;9.710;2024-01-27T03:46:39;99432.81;;;0.10;97.99
76052;BME280;64751;48.708;9.710;2024-01-27T03:49:06;99434.13;;;0.06;98.58
76052;BME280;64751;48.708;9.710;2024-01-27T03:51:38;99436.56;;;0.08;98.40
76052;BME280;64751;48.708;9.710;2024-01-27T03:54:11;99435.09;;;-0.03;98.80
76052;BME280;64751;48.708;9.710;2024-01-27T03:56:40;99433.47;;;-0.04;99.40
76052;BME280;64751;48.708;9.710;2024-01-27T03:59:08;99454.41;;;0.03;99.92
76052;BME280;64751;48.708;9.710;2024-01-27T04:01:38;99447.75;;;0.08;99.81
76052;BME280;64751;48.708;9.710;2024-01-27T04:04:06;99445.00;;;0.10;99.45
76052;BME280;64751;48.708;9.710;2024-01-27T04:06:39;99449.22;;;0.03;98.03
76052;BME280;64751;48.708;9.710;2024-01-27T04:09:07;99456.69;;;-0.03;98.62
76052;BME280;64751;48.708;9.710;2024-01-27T04:11:36;99442.41;;;0.02;99.79
76052;BME280;64751;48.708;9.710;2024-01-27T04:14:04;99444.34;;;0.08;100.00
76052;BME280;64751;48.708;9.710;2024-01-27T04:16:32;99448.41;;;0.10;100.00
76052;BME280;64751;48.708;9.710;2024-01-27T04:19:01;99444.53;;;0.06;99.81
76052;BME280;64751;48.708;9.710;2024-01-27T04:21:28;99444.69;;;0.13;100.00
76052;BME280;64751;48.708;9.710;2024-01-27T04:23:56;99457.50;;;0.14;99.72
76052;BME280;64751;48.708;9.710;2024-01-27T04:26:28;99448.72;;;0.07;99.14
76052;BME280;64751;48.708;9.710;2024-01-27T04:29:00;99456.38;;;0.09;100.00
76052;BME280;64751;48.708;9.710;2024-01-27T04:31:33;99452.13;;;0.08;100.00
76052;BME280;64751;48.708;9.710;2024-01-27T04:34:06;99454.09;;;0.06;99.09
76052;BME280;64751;48.708;9.710;2024-01-27T04:36:34;99454.41;;;-0.06;99.14
76052;BME280;64751;48.708;9.710;2024-01-27T04:39:02;99455.56;;;0.00;100.00
76052;BME280;64751;48.708;9.710;2024-01-27T04:41:30;99459.59;;;0.03;100.00
76052;BME280;64751;48.708;9.710;2024-01-27T04:44:02;99465.59;;;0.03;99.75
76052;BME280;64751;48.708;9.710;2024-01-27T04:46:30;99461.88;;;0.06;100.00
76052;BME280;64751;48.708;9.710;2024-01-27T04:49:02;99456.50;;;0.07;99.86
76052;BME280;64751;48.708;9.710;2024-01-27T04:51:36;99469.66;;;0.06;99.31
76052;BME280;64751;48.708;9.710;2024-01-27T04:54:03;99475.34;;;0.01;99.20
76052;BME280;64751;48.708;9.710;2024-01-27T04:56:35;99473.22;;;-0.04;99.14
76052;BME280;64751;48.708;9.710;2024-01-27T04:59:08;99472.59;;;-0.14;99.00
76052;BME280;64751;48.708;9.710;2024-01-27T05:01:44;99473.72;;;-0.16;98.85
76052;BME280;64751;48.708;9.710;2024-01-27T05:04:16;99464.63;;;-0.12;99.31
76052;BME280;64751;48.708;9.710;2024-01-27T05:06:50;99462.38;;;-0.07;100.00
76052;BME280;64751;48.708;9.710;2024-01-27T05:09:22;99465.28;;;-0.02;100.00
76052;BME280;64751;48.708;9.710;2024-01-27T05:11:50;99457.31;;;-0.09;99.47
76052;BME280;64751;48.708;9.710;2024-01-27T05:14:19;99466.09;;;-0.10;99.64
76052;BME280;64751;48.708;9.710;2024-01-27T05:16:52;99464.31;;;-0.09;99.70
76052;BME280;64751;48.708;9.710;2024-01-27T05:19:21;99469.50;;;-0.09;99.62
76052;BME280;64751;48.708;9.710;2024-01-27T05:21:50;99468.34;;;-0.15;98.57
76052;BME280;64751;48.708;9.710;2024-01-27T05:24:22;99470.78;;;-0.13;99.68
76052;BME280;64751;48.708;9.710;2024-01-27T05:26:54;99471.25;;;-0.18;99.32
76052;BME280;64751;48.708;9.710;2024-01-27T05:29:22;99470.59;;;-0.20;100.00
76052;BME280;64751;48.708;9.710;2024-01-27T05:31:49;99480.03;;;-0.19;99.65
76052;BME280;64751;48.708;9.710;2024-01-27T05:34:17;99483.28;;;-0.17;99.15
76052;BME280;64751;48.708;9.710;2024-01-27T05:36:44;99486.19;;;-0.20;99.17
76052;BME280;64751;48.708;9.710;2024-01-27T05:39:18;99486.53;;;-0.15;100.00
76052;BME280;64751;48.708;9.710;2024-01-27T05:41:45;99488.47;;;-0.17;99.76
76052;BME280;64751;48.708;9.710;2024-01-27T05:44:12;99502.59;;;-0.19;99.75
76052;BME280;64751;48.708;9.710;2024-01-27T05:46:40;99491.19;;;-0.26;100.00
76052;BME280;64751;48.708;9.710;2024-01-27T05:49:12;99495.44;;;-0.17;100.00
76052;BME280;64751;48.708;9.710;2024-01-27T05:51:44;99502.28;;;-0.16;99.85
76052;BME280;64751;48.708;9.710;2024-01-27T05:54:12;99501.94;;;-0.21;99.18
76052;BME280;64751;48.708;9.710;2024-01-27T05:56:49;99504.53;;;-0.21;99.92
76052;BME280;64751;48.708;9.710;2024-01-27T05:59:16;99501.28;;;-0.23;100.00
76052;BME280;64751;48.708;9.710;2024-01-27T06:01:48;99512.97;;;-0.19;100.00
76052;BME280;64751;48.708;9.710;2024-01-27T06:04:21;99510.19;;;-0.18;100.00
76052;BME280;64751;48.708;9.710;2024-01-27T06:06:53;99510.72;;;-0.14;100.00
76052;BME280;64751;48.708;9.710;2024-01-27T06:09:25;99507.94;;;-0.13;100.00
76052;BME280;64751;48.708;9.710;2024-01-27T06:11:57;99503.88;;;-0.15;99.64
76052;BME280;64751;48.708;9.710;2024-01-27T06:14:30;99511.84;;;-0.09;100.00
76052;BME280;64751;48.708;9.710;2024-01-27T06:16:58;99518.84;;;-0.09;100.00
76052;BME280;64751;48.708;9.710;2024-01-27T06:19:31;99517.38;;;-0.12;100.00
76052;BME280;64751;48.708;9.710;2024-01-27T06:21:58;99503.41;;;-0.19;99.30
76052;BME280;64751;48.708;9.710;2024-01-27T06:24:30;99505.47;;;-0.30;99.22
76052;BME280;64751;48.708;9.710;2024-01-27T06:27:04;99508.53;;;-0.35;99.60
76052;BME280;64751;48.708;9.710;2024-01-27T06:29:32;99517.28;;;-0.36;99.37
76052;BME280;64751;48.708;9.710;2024-01-27T06:31:59;99516.00;;;-0.40;99.95
76052;BME280;64751;48.708;9.710;2024-01-27T06:34:27;99509.00;;;-0.47;99.77
76052;BME280;64751;48.708;9.710;2024-01-27T06:36:59;99519.22;;;-0.46;100.00
76052;BME280;64751;48.708;9.710;2024-01-27T06:39:27;99517.25;;;-0.52;99.67
76052;BME280;64751;48.708;9.710;2024-01-27T06:42:00;99521.94;;;0.19;100.00
76052;BME280;64751;48.708;9.710;2024-01-27T06:44:29;99517.38;;;-0.04;98.07
76052;BME280;64751;48.708;9.710;2024-01-27T06:47:01;99520.91;;;-0.21;97.55
76052;BME280;64751;48.708;9.710;2024-01-27T06:49:34;99517.50;;;-0.29;97.90
76052;BME280;64751;48.708;9.710;2024-01-27T06:52:01;99513.09;;;-0.29;98.54
76052;BME280;64751;48.708;9.710;2024-01-27T06:54:30;99517.31;;;-0.28;98.18
76052;BME280;64751;48.708;9.710;2024-01-27T06:56:59;99519.56;;;-0.41;96.76
76052;BME280;64751;48.708;9.710;2024-01-27T06:59:33;99521.13;;;-0.56;97.03
76052;BME280;64751;48.708;9.710;2024-01-27T07:02:00;99526.94;;;-0.62;97.30
76052;BME280;64751;48.708;9.710;2024-01-27T07:04:32;99528.38;;;-0.67;97.41
76052;BME280;64751;48.708;9.710;2024-01-27T07:07:00;99525.44;;;-0.73;98.30
76052;BME280;64751;48.708;9.710;2024-01-27T07:09:27;99525.44;;;-0.73;97.38
76052;BME280;64751;48.708;9.710;2024-01-27T07:11:55;99526.56;;;-0.75;97.64
76052;BME280;64751;48.708;9.710;2024-01-27T07:14:27;99530.09;;;-0.76;97.08
76052;BME280;64751;48.708;9.710;2024-01-27T07:16:56;99529.81;;;-0.73;97.07
76052;BME280;64751;48.708;9.710;2024-01-27T07:19:28;99532.69;;;-0.84;96.72
76052;BME280;64751;48.708;9.710;2024-01-27T07:21:56;99528.78;;;-0.88;98.08
76052;BME280;64751;48.708;9.710;2024-01-27T07:24:28;99530.53;;;-0.89;98.63
76052;BME280;64751;48.708;9.710;2024-01-27T07:26:55;99538.50;;;-0.90;97.78
76052;BME280;64751;48.708;9.710;2024-01-27T07:29:29;99532.69;;;-0.84;98.82
76052;BME280;64751;48.708;9.710;2024-01-27T07:32:04;99533.34;;;-0.82;98.71
76052;BME280;64751;48.708;9.710;2024-01-27T07:34:40;99539.16;;;-0.80;98.17
76052;BME280;64751;48.708;9.710;2024-01-27T07:37:07;99541.28;;;-0.84;97.59
76052;BME280;64751;48.708;9.710;2024-01-27T07:39:40;99540.63;;;-0.86;98.32
76052;BME280;64751;48.708;9.710;2024-01-27T07:42:07;99532.03;;;-0.78;98.38
76052;BME280;64751;48.708;9.710;2024-01-27T07:44:36;99536.56;;;-0.80;97.26
76052;BME280;64751;48.708;9.710;2024-01-27T07:47:04;99537.69;;;-0.83;98.80
76052;BME280;64751;48.708;9.710;2024-01-27T07:49:32;99530.09;;;-0.76;99.44
76052;BME280;64751;48.708;9.710;2024-01-27T07:52:05;99536.94;;;-0.75;98.97
76052;BME280;64751;48.708;9.710;2024-01-27T07:54:37;99539.88;;;-0.70;99.07
76052;BME280;64751;48.708;9.710;2024-01-27T07:57:06;99539.88;;;-0.70;99.05
76052;BME280;64751;48.708;9.710;2024-01-27T07:59:33;99549.13;;;-0.67;99.52
76052;BME280;64751;48.708;9.710;2024-01-27T08:02:01;99537.31;;;-0.62;99.92
76052;BME280;64751;48.708;9.710;2024-01-27T08:04:30;99540.28;;;-0.49;100.00
76052;BME280;64751;48.708;9.710;2024-01-27T08:07:02;99541.09;;;0.10;100.00
76052;BME280;64751;48.708;9.710;2024-01-27T08:09:40;99543.34;;;-0.04;100.00
76052;BME280;64751;48.708;9.710;2024-01-27T08:12:08;99551.91;;;-0.11;100.00
76052;BME280;64751;48.708;9.710;2024-01-27T08:14:40;99546.53;;;-0.18;100.00
76052;BME280;64751;48.708;9.710;2024-01-27T08:17:08;99542.00;;;-0.24;100.00
76052;BME280;64751;48.708;9.710;2024-01-27T08:19:42;99539.22;;;-0.22;100.00
76052;BME280;64751;48.708;9.710;2024-01-27T08:22:15;99543.78;;;-0.24;100.00
76052;BME280;64751;48.708;9.710;2024-01-27T08:24:42;99550.44;;;-0.22;100.00
76052;BME280;64751;48.708;9.710;2024-01-27T08:27:10;99550.13;;;-0.19;100.00
76052;BME280;64751;48.708;9.710;2024-01-27T08:29:42;99553.06;;;-0.14;100.00
76052;BME280;64751;48.708;9.710;2024-01-27T08:32:15;99551.13;;;-0.12;100.00
76052;BME280;64751;48.708;9.710;2024-01-27T08:34:48;99553.06;;;-0.06;100.00
76052;BME280;64751;48.708;9.710;2024-01-27T08:37:21;99549.34;;;-0.03;100.00
76052;BME280;64751;48.708;9.710;2024-01-27T08:39:53;99544.50;;;0.02;100.00
76052;BME280;64751;48.708;9.710;2024-01-27T08:42:25;99545.63;;;0.08;100.00
76052;BME280;64751;48.708;9.710;2024-01-27T08:44:53;99544.97;;;0.14;100.00
76052;BME280;64751;48.708;9.710;2024-01-27T08:47:20;99540.59;;;0.14;100.00
76052;BME280;64751;48.708;9.710;2024-01-27T08:49:50;99532.03;;;0.22;100.00
76052;BME280;64751;48.708;9.710;2024-01-27T08:52:17;99532.19;;;0.28;100.00
76052;BME280;64751;48.708;9.710;2024-01-27T08:54:50;99534.13;;;0.34;100.00
76052;BME280;64751;48.708;9.710;2024-01-27T08:57:17;99527.81;;;0.37;100.00
76052;BME280;64751;48.708;9.710;2024-01-27T08:59:49;99538.22;;;0.45;100.00
76052;BME280;64751;48.708;9.710;2024-01-27T09:02:22;99519.84;;;0.46;100.00
76052;BME280;64751;48.708;9.710;2024-01-27T09:04:51;99526.81;;;0.54;100.00
76052;BME280;64751;48.708;9.710;2024-01-27T09:07:18;99516.91;;;0.57;100.00
76052;BME280;64751;48.708;9.710;2024-01-27T09:09:50;99516.25;;;0.63;100.00
76052;BME280;64751;48.708;9.710;2024-01-27T09:12:18;99511.38;;;0.68;100.00
76052;BME280;64751;48.708;9.710;2024-01-27T09:14:47;99514.31;;;0.73;100.00
76052;BME280;64751;48.708;9.710;2024-01-27T09:17:15;99507.47;;;0.72;100.00
76052;BME280;64751;48.708;9.710;2024-01-27T09:19:47;99512.97;;;0.86;100.00
76052;BME280;64751;48.708;9.710;2024-01-27T09:22:16;99501.91;;;0.92;100.00
76052;BME280;64751;48.708;9.710;2024-01-27T09:24:44;99499.47;;;0.98;100.00
76052;BME280;64751;48.708;9.710;2024-01-27T09:27:16;99504.16;;;1.03;100.00
76052;BME280;64751;48.708;9.710;2024-01-27T09:29:49;99511.47;;;1.07;100.00
76052;BME280;64751;48.708;9.710;2024-01-27T09:32:21;99508.19;;;1.13;100.00
76052;BME280;64751;48.708;9.710;2024-01-27T09:34:53;99501.66;;;1.17;100.00
76052;BME280;64751;48.708;9.710;2024-01-27T09:37:22;99509.59;;;1.24;100.00
76052;BME280;64751;48.708;9.710;2024-01-27T09:39:55;99509.91;;;1.29;100.00
76052;BME280;64751;48.708;9.710;2024-01-27T09:42:23;99518.84;;;1.34;100.00
76052;BME280;64751;48.708;9.710;2024-01-27T09:44:56;99517.88;;;1.35;100.00
76052;BME280;64751;48.708;9.710;2024-01-27T09:47:25;99525.00;;;1.41;100.00
76052;BME280;64751;48.708;9.710;2024-01-27T09:49:52;99529.53;;;1.48;100.00
76052;BME280;64751;48.708;9.710;2024-01-27T09:52:26;99525.44;;;1.53;100.00
76052;BME280;64751;48.708;9.710;2024-01-27T09:54:54;99529.97;;;1.59;100.00
76052;BME280;64751;48.708;9.710;2024-01-27T09:57:22;99534.50;;;1.65;100.00
76052;BME280;64751;48.708;9.710;2024-01-27T09:59:56;99536.22;;;1.73;100.00
76052;BME280;64751;48.708;9.710;2024-01-27T10:02:29;99539.50;;;1.75;100.00
76052;BME280;64751;48.708;9.710;2024-01-27T10:04:56;99554.44;;;1.81;100.00
76052;BME280;64751;48.708;9.710;2024-01-27T10:07:24;99560.09;;;1.84;100.00
76052;BME280;64751;48.708;9.710;2024-01-27T10:09:53;99561.38;;;1.88;100.00
76052;BME280;64751;48.708;9.710;2024-01-27T10:12:26;99562.31;;;1.95;100.00
76052;BME280;64751;48.708;9.710;2024-01-27T10:15:00;99565.22;;;2.00;100.00
76052;BME280;64751;48.708;9.710;2024-01-27T10:17:28;99571.72;;;2.04;100.00
76052;BME280;64751;48.708;9.710;2024-01-27T10:20:06;99566.00;;;2.09;100.00
76052;BME280;64751;48.708;9.710;2024-01-27T10:22:39;99568.72;;;2.15;100.00
76052;BME280;64751;48.708;9.710;2024-01-27T10:25:08;99557.16;;;2.18;100.00
76052;BME280;64751;48.708;9.710;2024-01-27T10:27:36;99558.41;;;2.22;100.00
76052;BME280;64751;48.708;9.710;2024-01-27T10:30:05;99560.50;;;2.27;100.00
76052;BME280;64751;48.708;9.710;2024-01-27T10:32:33;99557.75;;;2.28;100.00
76052;BME280;64751;48.708;9.710;2024-01-27T10:35:07;99557.22;;;2.33;100.00
76052;BME280;64751;48.708;9.710;2024-01-27T10:37:40;99553.09;;;2.38;100.00
76052;BME280;64751;48.708;9.710;2024-01-27T10:40:09;99550.78;;;2.43;100.00
76052;BME280;64751;48.708;9.710;2024-01-27T10:42:44;99552.41;;;2.44;100.00
76052;BME280;64751;48.708;9.710;2024-01-27T10:45:18;99546.00;;;2.47;100.00
76052;BME280;64751;48.708;9.710;2024-01-27T10:47:47;99548.47;;;2.48;100.00
76052;BME280;64751;48.708;9.710;2024-01-27T10:50:16;99549.56;;;2.54;100.00
76052;BME280;64751;48.708;9.710;2024-01-27T10:52:48;99550.03;;;2.57;100.00
76052;BME280;64751;48.708;9.710;2024-01-27T10:55:19;99547.97;;;2.67;100.00
76052;BME280;64751;48.708;9.710;2024-01-27T10:57:47;99533.13;;;2.68;100.00
76052;BME280;64751;48.708;9.710;2024-01-27T11:00:16;99539.38;;;2.81;100.00
76052;BME280;64751;48.708;9.710;2024-01-27T11:02:45;99532.63;;;2.87;100.00
76052;BME280;64751;48.708;9.710;2024-01-27T11:05:17;99536.53;;;2.91;98.87
76052;BME280;64751;48.708;9.710;2024-01-27T11:07:49;99538.31;;;2.90;99.99
76052;BME280;64751;48.708;9.710;2024-01-27T11:10:25;99531.47;;;2.89;97.56
76052;BME280;64751;48.708;9.710;2024-01-27T11:12:57;99532.75;;;2.93;97.58
76052;BME280;64751;48.708;9.710;2024-01-27T11:15:29;99530.13;;;2.93;96.87
76052;BME280;64751;48.708;9.710;2024-01-27T11:18:02;99530.38;;;2.99;96.66
76052;BME280;64751;48.708;9.710;2024-01-27T11:20:36;99528.88;;;3.04;95.27
76052;BME280;64751;48.708;9.710;2024-01-27T11:23:09;99527.34;;;3.10;92.77
76052;BME280;64751;48.708;9.710;2024-01-27T11:25:38;99521.59;;;3.14;94.00
76052;BME280;64751;48.708;9.710;2024-01-27T11:28:12;99497.66;;;3.11;95.87
76052;BME280;64751;48.708;9.710;2024-01-27T11:30:46;99495.31;;;3.16;94.12
76052;BME280;64751;48.708;9.710;2024-01-27T11:33:14;99494.25;;;3.25;93.29
76052;BME280;64751;48.708;9.710;2024-01-27T11:35:42;99487.47;;;3.30;92.34
76052;BME280;64751;48.708;9.710;2024-01-27T11:38:09;99491.16;;;3.36;91.96
76052;BME280;64751;48.708;9.710;2024-01-27T11:40:46;99487.38;;;3.38;89.70
76052;BME280;64751;48.708;9.710;2024-01-27T11:43:20;99478.00;;;3.44;90.38
76052;BME280;64751;48.708;9.710;2024-01-27T11:45:55;99469.25;;;3.51;87.61
76052;BME280;64751;48.708;9.710;2024-01-27T11:48:22;99455.56;;;3.49;87.86
76052;BME280;64751;48.708;9.710;2024-01-27T11:51:03;99458.88;;;3.58;86.04
76052;BME280;64751;48.708;9.710;2024-01-27T11:53:30;99463.72;;;3.61;86.01
76052;BME280;64751;48.708;9.710;2024-01-27T11:56:05;99456.78;;;3.68;84.51
76052;BME280;64751;48.708;9.710;2024-01-27T11:58:33;99460.81;;;3.71;83.32
76052;BME280;64751;48.708;9.710;2024-01-27T12:01:05;99462.88;;;3.75;84.75
76052;BME280;64751;48.708;9.710;2024-01-27T12:03:40;99465.56;;;3.82;85.12
76052;BME280;64751;48.708;9.710;2024-01-27T12:06:12;99464.38;;;3.84;83.86
76052;BME280;64751;48.708;9.710;2024-01-27T12:08:40;99456.91;;;3.81;84.43
76052;BME280;64751;48.708;9.710;2024-01-27T12:11:19;99444.09;;;3.86;85.05
76052;BME280;64751;48.708;9.710;2024-01-27T12:13:46;99435.69;;;3.91;84.75
76052;BME280;64751;48.708;9.710;2024-01-27T12:16:15;99422.06;;;3.95;84.42
76052;BME280;64751;48.708;9.710;2024-01-27T12:18:43;99422.88;;;3.96;84.07
76052;BME280;64751;48.708;9.710;2024-01-27T12:21:18;99424.53;;;3.97;85.76
76052;BME280;64751;48.708;9.710;2024-01-27T12:23:51;99419.50;;;4.02;86.79
76052;BME280;64751;48.708;9.710;2024-01-27T12:26:21;99421.50;;;4.00;87.69
76052;BME280;64751;48.708;9.710;2024-01-27T12:28:54;99410.13;;;4.07;89.19
76052;BME280;64751;48.708;9.710;2024-01-27T12:31:28;99407.94;;;4.11;90.51
76052;BME280;64751;48.708;9.710;2024-01-27T12:34:01;99420.44;;;4.15;90.09
76052;BME280;64751;48.708;9.710;2024-01-27T12:36:29;99418.84;;;4.14;88.09
76052;BME280;64751;48.708;9.710;2024-01-27T12:39:02;99419.44;;;4.16;89.10
76052;BME280;64751;48.708;9.710;2024-01-27T12:41:32;99417.69;;;4.23;88.24
76052;BME280;64751;48.708;9.710;2024-01-27T12:44:06;99417.88;;;4.22;87.79
76052;BME280;64751;48.708;9.710;2024-01-27T12:46:38;99409.16;;;4.15;88.25
76052;BME280;64751;48.708;9.710;2024-01-27T12:49:11;99410.38;;;4.12;87.00
76052;BME280;64751;48.708;9.710;2024-01-27T12:51:43;99405.16;;;4.12;86.41
76052;BME280;64751;48.708;9.710;2024-01-27T12:54:17;99399.53;;;4.15;85.74
76052;BME280;64751;48.708;9.710;2024-01-27T12:56:51;99404.19;;;4.20;85.60
76052;BME280;64751;48.708;9.710;2024-01-27T12:59:24;99390.75;;;4.23;85.24
76052;BME280;64751;48.708;9.710;2024-01-27T13:01:56;99396.38;;;4.26;84.22
76052;BME280;64751;48.708;9.710;2024-01-27T13:04:24;99386.75;;;4.27;83.26
76052;BME280;64751;48.708;9.710;2024-01-27T13:06:56;99387.34;;;4.29;83.28
76052;BME280;64751;48.708;9.710;2024-01-27T13:09:29;99386.88;;;4.47;75.71
76052;BME280;64751;48.708;9.710;2024-01-27T13:11:57;99394.59;;;4.55;75.40
76052;BME280;64751;48.708;9.710;2024-01-27T13:14:25;99391.81;;;4.63;74.86
76052;BME280;64751;48.708;9.710;2024-01-27T13:16:57;99384.97;;;4.62;73.46
76052;BME280;64751;48.708;9.710;2024-01-27T13:19:30;99389.19;;;4.63;71.75
76052;BME280;64751;48.708;9.710;2024-01-27T13:22:03;99386.41;;;4.71;72.86